sensor_id;sensor_type;location;lat;lon;timestamp;temperature;humidity
56538;DHT22;42435;53.292;6.000;2022-08-24T00:02:08;21.00;73.50
56538;DHT22;42435;53.292;6.000;2022-08-24T00:04:34;21.00;73.80
56538;DHT22;42435;53.292;6.000;2022-08-24T00:07:01;20.90;73.50
56538;DHT22;42435;53.292;6.000;2022-08-24T00:09:27;20.90;73.70
56538;DHT22;42435;53.292;6.000;2022-08-24T00:11:53;20.90;73.80
56538;DHT22;42435;53.292;6.000;2022-08-24T00:14:18;20.80;73.70
56538;DHT22;42435;53.292;6.000;2022-08-24T00:16:45;20.80;73.60
56538;DHT22;42435;53.292;6.000;2022-08-24T00:19:11;20.70;73.90
56538;DHT22;42435;53.292;6.000;2022-08-24T00:21:36;20.70;73.80
56538;DHT22;42435;53.292;6.000;2022-08-24T00:24:02;20.70;74.10
56538;DHT22;42435;53.292;6.000;2022-08-24T00:26:28;20.60;74.20
56538;DHT22;42435;53.292;6.000;2022-08-24T00:28:54;20.70;73.90
56538;DHT22;42435;53.292;6.000;2022-08-24T00:31:19;20.60;74.10
56538;DHT22;42435;53.292;6.000;2022-08-24T00:33:45;20.60;74.30
56538;DHT22;42435;53.292;6.000;2022-08-24T00:36:10;20.60;74.50
56538;DHT22;42435;53.292;6.000;2022-08-24T00:38:36;20.60;74.30
56538;DHT22;42435;53.292;6.000;2022-08-24T00:41:03;20.60;74.40
56538;DHT22;42435;53.292;6.000;2022-08-24T00:43:29;20.60;74.60
56538;DHT22;42435;53.292;6.000;2022-08-24T00:46:16;20.60;74.80
56538;DHT22;42435;53.292;6.000;2022-08-24T00:48:46;20.60;75.10
56538;DHT22;42435;53.292;6.000;2022-08-24T00:51:21;20.60;74.70
56538;DHT22;42435;53.292;6.000;2022-08-24T00:53:54;20.60;74.80
56538;DHT22;42435;53.292;6.000;2022-08-24T00:56:26;20.50;74.40
56538;DHT22;42435;53.292;6.000;2022-08-24T00:59:00;20.50;74.80
56538;DHT22;42435;53.292;6.000;2022-08-24T01:01:28;20.50;74.90
56538;DHT22;42435;53.292;6.000;2022-08-24T01:03:56;20.50;74.60
56538;DHT22;42435;53.292;6.000;2022-08-24T01:06:21;20.50;74.70
56538;DHT22;42435;53.292;6.000;2022-08-24T01:08:47;20.40;74.90
56538;DHT22;42435;53.292;6.000;2022-08-24T01:11:18;20.40;75.20
56538;DHT22;42435;53.292;6.000;2022-08-24T01:13:46;20.40;75.30
56538;DHT22;42435;53.292;6.000;2022-08-24T01:16:13;20.40;75.40
56538;DHT22;42435;53.292;6.000;2022-08-24T01:18:39;20.40;75.30
56538;DHT22;42435;53.292;6.000;2022-08-24T01:21:15;20.40;75.20
56538;DHT22;42435;53.292;6.000;2022-08-24T01:26:19;20.40;75.40
56538;DHT22;42435;53.292;6.000;2022-08-24T01:28:47;20.40;75.50
56538;DHT22;42435;53.292;6.000;2022-08-24T01:31:14;20.40;75.50
56538;DHT22;42435;53.292;6.000;2022-08-24T01:33:41;20.40;75.40
56538;DHT22;42435;53.292;6.000;2022-08-24T01:36:24;20.40;75.20
56538;DHT22;42435;53.292;6.000;2022-08-24T01:38:50;20.40;75.10
56538;DHT22;42435;53.292;6.000;2022-08-24T01:41:16;20.30;75.30
56538;DHT22;42435;53.292;6.000;2022-08-24T01:43:41;20.30;75.40
56538;DHT22;42435;53.292;6.000;2022-08-24T01:46:07;20.40;75.20
56538;DHT22;42435;53.292;6.000;2022-08-24T01:48:33;20.30;75.20
56538;DHT22;42435;53.292;6.000;2022-08-24T01:50:58;20.30;75.00
56538;DHT22;42435;53.292;6.000;2022-08-24T01:53:24;20.30;74.70
56538;DHT22;42435;53.292;6.000;2022-08-24T01:55:49;20.20;74.70
56538;DHT22;42435;53.292;6.000;2022-08-24T01:58:15;20.20;74.80
56538;DHT22;42435;53.292;6.000;2022-08-24T02:00:41;20.10;74.90
56538;DHT22;42435;53.292;6.000;2022-08-24T02:03:07;20.10;74.90
56538;DHT22;42435;53.292;6.000;2022-08-24T02:05:33;20.00;75.10
56538;DHT22;42435;53.292;6.000;2022-08-24T02:08:02;20.00;75.10
56538;DHT22;42435;53.292;6.000;2022-08-24T02:10:28;20.00;75.20
56538;DHT22;42435;53.292;6.000;2022-08-24T02:12:54;20.00;75.50
56538;DHT22;42435;53.292;6.000;2022-08-24T02:15:38;19.90;75.60
56538;DHT22;42435;53.292;6.000;2022-08-24T02:18:08;19.90;75.40
56538;DHT22;42435;53.292;6.000;2022-08-24T02:20:35;19.90;75.50
56538;DHT22;42435;53.292;6.000;2022-08-24T02:23:01;19.90;75.40
56538;DHT22;42435;53.292;6.000;2022-08-24T02:25:27;19.90;75.60
56538;DHT22;42435;53.292;6.000;2022-08-24T02:27:59;19.80;75.90
56538;DHT22;42435;53.292;6.000;2022-08-24T02:30:25;19.80;75.90
56538;DHT22;42435;53.292;6.000;2022-08-24T02:32:51;19.70;75.80
56538;DHT22;42435;53.292;6.000;2022-08-24T02:35:17;19.80;75.90
56538;DHT22;42435;53.292;6.000;2022-08-24T02:37:42;19.70;75.80
56538;DHT22;42435;53.292;6.000;2022-08-24T02:40:09;19.70;75.70
56538;DHT22;42435;53.292;6.000;2022-08-24T02:42:36;19.70;76.00
56538;DHT22;42435;53.292;6.000;2022-08-24T02:45:02;19.70;76.00
56538;DHT22;42435;53.292;6.000;2022-08-24T02:47:28;19.60;76.20
56538;DHT22;42435;53.292;6.000;2022-08-24T02:49:54;19.60;76.10
56538;DHT22;42435;53.292;6.000;2022-08-24T02:52:19;19.60;76.00
56538;DHT22;42435;53.292;6.000;2022-08-24T02:54:45;19.60;76.00
56538;DHT22;42435;53.292;6.000;2022-08-24T02:57:11;19.60;76.30
56538;DHT22;42435;53.292;6.000;2022-08-24T02:59:36;19.50;76.60
56538;DHT22;42435;53.292;6.000;2022-08-24T03:02:02;19.50;76.70
56538;DHT22;42435;53.292;6.000;2022-08-24T03:04:28;19.50;76.80
56538;DHT22;42435;53.292;6.000;2022-08-24T03:06:54;19.50;76.70
56538;DHT22;42435;53.292;6.000;2022-08-24T03:09:19;19.60;76.50
56538;DHT22;42435;53.292;6.000;2022-08-24T03:11:45;19.50;76.30
56538;DHT22;42435;53.292;6.000;2022-08-24T03:14:11;19.50;76.10
56538;DHT22;42435;53.292;6.000;2022-08-24T03:16:36;19.50;76.10
56538;DHT22;42435;53.292;6.000;2022-08-24T03:19:03;19.50;76.20
56538;DHT22;42435;53.292;6.000;2022-08-24T03:21:28;19.50;76.20
56538;DHT22;42435;53.292;6.000;2022-08-24T03:23:54;19.50;76.30
56538;DHT22;42435;53.292;6.000;2022-08-24T03:26:20;19.50;76.30
56538;DHT22;42435;53.292;6.000;2022-08-24T03:28:45;19.50;76.20
56538;DHT22;42435;53.292;6.000;2022-08-24T03:31:11;19.40;76.30
56538;DHT22;42435;53.292;6.000;2022-08-24T03:33:37;19.40;76.20
56538;DHT22;42435;53.292;6.000;2022-08-24T03:36:03;19.40;76.20
56538;DHT22;42435;53.292;6.000;2022-08-24T03:38:29;19.40;76.20
56538;DHT22;42435;53.292;6.000;2022-08-24T03:40:54;19.40;76.40
56538;DHT22;42435;53.292;6.000;2022-08-24T03:43:20;19.40;76.30
56538;DHT22;42435;53.292;6.000;2022-08-24T03:46:06;19.40;76.50
56538;DHT22;42435;53.292;6.000;2022-08-24T03:48:32;19.40;76.40
56538;DHT22;42435;53.292;6.000;2022-08-24T03:50:58;19.40;76.30
56538;DHT22;42435;53.292;6.000;2022-08-24T03:53:23;19.40;76.50
56538;DHT22;42435;53.292;6.000;2022-08-24T03:55:49;19.40;76.90
56538;DHT22;42435;53.292;6.000;2022-08-24T03:58:15;19.40;76.70
56538;DHT22;42435;53.292;6.000;2022-08-24T04:00:41;19.50;76.90
56538;DHT22;42435;53.292;6.000;2022-08-24T04:03:09;19.50;76.70
56538;DHT22;42435;53.292;6.000;2022-08-24T04:05:35;19.60;77.00
56538;DHT22;42435;53.292;6.000;2022-08-24T04:08:02;19.60;77.20
56538;DHT22;42435;53.292;6.000;2022-08-24T04:10:27;19.60;76.90
56538;DHT22;42435;53.292;6.000;2022-08-24T04:12:53;19.70;76.70
56538;DHT22;42435;53.292;6.000;2022-08-24T04:15:19;19.80;76.80
56538;DHT22;42435;53.292;6.000;2022-08-24T04:17:44;19.80;76.80
56538;DHT22;42435;53.292;6.000;2022-08-24T04:20:10;19.90;76.80
56538;DHT22;42435;53.292;6.000;2022-08-24T04:22:36;19.80;76.70
56538;DHT22;42435;53.292;6.000;2022-08-24T04:25:03;19.90;76.60
56538;DHT22;42435;53.292;6.000;2022-08-24T04:27:29;19.90;76.90
56538;DHT22;42435;53.292;6.000;2022-08-24T04:29:55;19.90;76.90
56538;DHT22;42435;53.292;6.000;2022-08-24T04:32:20;19.90;77.00
56538;DHT22;42435;53.292;6.000;2022-08-24T04:34:46;19.90;77.00
56538;DHT22;42435;53.292;6.000;2022-08-24T04:37:12;19.90;77.20
56538;DHT22;42435;53.292;6.000;2022-08-24T04:39:37;19.90;77.30
56538;DHT22;42435;53.292;6.000;2022-08-24T04:42:04;19.90;77.40
56538;DHT22;42435;53.292;6.000;2022-08-24T04:44:29;19.90;77.50
56538;DHT22;42435;53.292;6.000;2022-08-24T04:46:56;19.90;77.70
56538;DHT22;42435;53.292;6.000;2022-08-24T04:49:22;19.90;77.90
56538;DHT22;42435;53.292;6.000;2022-08-24T04:51:47;19.90;78.10
56538;DHT22;42435;53.292;6.000;2022-08-24T04:54:14;19.90;78.00
56538;DHT22;42435;53.292;6.000;2022-08-24T04:56:40;19.90;78.00
56538;DHT22;42435;53.292;6.000;2022-08-24T04:59:06;19.90;77.90
56538;DHT22;42435;53.292;6.000;2022-08-24T05:01:32;19.90;77.90
56538;DHT22;42435;53.292;6.000;2022-08-24T05:03:58;20.00;78.10
56538;DHT22;42435;53.292;6.000;2022-08-24T05:06:29;19.90;78.20
56538;DHT22;42435;53.292;6.000;2022-08-24T05:08:55;20.00;78.10
56538;DHT22;42435;53.292;6.000;2022-08-24T05:11:21;20.00;78.00
56538;DHT22;42435;53.292;6.000;2022-08-24T05:13:48;20.00;77.80
56538;DHT22;42435;53.292;6.000;2022-08-24T05:16:16;20.10;78.00
56538;DHT22;42435;53.292;6.000;2022-08-24T05:18:42;20.00;78.00
56538;DHT22;42435;53.292;6.000;2022-08-24T05:21:16;20.10;78.00
56538;DHT22;42435;53.292;6.000;2022-08-24T05:23:42;20.20;78.00
56538;DHT22;42435;53.292;6.000;2022-08-24T05:26:17;20.20;77.80
56538;DHT22;42435;53.292;6.000;2022-08-24T05:28:43;20.20;77.80
56538;DHT22;42435;53.292;6.000;2022-08-24T05:31:11;20.30;77.70
56538;DHT22;42435;53.292;6.000;2022-08-24T05:33:37;20.30;77.60
56538;DHT22;42435;53.292;6.000;2022-08-24T05:36:04;20.30;77.50
56538;DHT22;42435;53.292;6.000;2022-08-24T05:38:31;20.40;77.50
56538;DHT22;42435;53.292;6.000;2022-08-24T05:41:02;20.40;77.50
56538;DHT22;42435;53.292;6.000;2022-08-24T05:43:27;20.40;77.50
56538;DHT22;42435;53.292;6.000;2022-08-24T05:45:54;20.40;77.40
56538;DHT22;42435;53.292;6.000;2022-08-24T05:48:19;20.50;77.10
56538;DHT22;42435;53.292;6.000;2022-08-24T05:50:51;20.70;76.80
56538;DHT22;42435;53.292;6.000;2022-08-24T05:53:17;20.80;76.60
56538;DHT22;42435;53.292;6.000;2022-08-24T05:55:43;20.90;76.30
56538;DHT22;42435;53.292;6.000;2022-08-24T05:58:08;20.90;76.30
56538;DHT22;42435;53.292;6.000;2022-08-24T06:00:36;21.00;76.10
56538;DHT22;42435;53.292;6.000;2022-08-24T06:03:02;21.00;76.10
56538;DHT22;42435;53.292;6.000;2022-08-24T06:05:27;21.10;75.90
56538;DHT22;42435;53.292;6.000;2022-08-24T06:07:54;21.20;75.60
56538;DHT22;42435;53.292;6.000;2022-08-24T06:10:19;21.30;75.30
56538;DHT22;42435;53.292;6.000;2022-08-24T06:12:45;21.40;75.30
56538;DHT22;42435;53.292;6.000;2022-08-24T06:15:11;21.50;75.10
56538;DHT22;42435;53.292;6.000;2022-08-24T06:17:38;21.70;74.80
56538;DHT22;42435;53.292;6.000;2022-08-24T06:20:04;21.90;74.40
56538;DHT22;42435;53.292;6.000;2022-08-24T06:22:30;22.20;73.70
56538;DHT22;42435;53.292;6.000;2022-08-24T06:24:55;22.50;72.80
56538;DHT22;42435;53.292;6.000;2022-08-24T06:27:40;22.90;71.70
56538;DHT22;42435;53.292;6.000;2022-08-24T06:30:07;23.50;70.40
56538;DHT22;42435;53.292;6.000;2022-08-24T06:32:38;23.90;69.50
56538;DHT22;42435;53.292;6.000;2022-08-24T06:35:04;24.20;68.90
56538;DHT22;42435;53.292;6.000;2022-08-24T06:37:31;24.40;68.20
56538;DHT22;42435;53.292;6.000;2022-08-24T06:39:57;24.70;67.70
56538;DHT22;42435;53.292;6.000;2022-08-24T06:42:23;24.90;67.00
56538;DHT22;42435;53.292;6.000;2022-08-24T06:44:50;25.00;66.70
56538;DHT22;42435;53.292;6.000;2022-08-24T06:47:15;25.10;66.30
56538;DHT22;42435;53.292;6.000;2022-08-24T06:49:41;25.20;66.00
56538;DHT22;42435;53.292;6.000;2022-08-24T06:52:07;25.40;65.80
56538;DHT22;42435;53.292;6.000;2022-08-24T06:54:35;25.40;65.60
56538;DHT22;42435;53.292;6.000;2022-08-24T06:57:01;25.50;65.20
56538;DHT22;42435;53.292;6.000;2022-08-24T06:59:27;25.60;65.20
56538;DHT22;42435;53.292;6.000;2022-08-24T07:01:54;25.70;65.30
56538;DHT22;42435;53.292;6.000;2022-08-24T07:04:21;25.90;64.90
56538;DHT22;42435;53.292;6.000;2022-08-24T07:06:48;26.00;64.40
56538;DHT22;42435;53.292;6.000;2022-08-24T07:09:14;26.20;63.90
56538;DHT22;42435;53.292;6.000;2022-08-24T07:11:40;26.30;63.60
56538;DHT22;42435;53.292;6.000;2022-08-24T07:14:06;26.40;63.40
56538;DHT22;42435;53.292;6.000;2022-08-24T07:16:32;26.50;63.90
56538;DHT22;42435;53.292;6.000;2022-08-24T07:18:58;26.60;63.00
56538;DHT22;42435;53.292;6.000;2022-08-24T07:21:27;26.80;62.50
56538;DHT22;42435;53.292;6.000;2022-08-24T07:23:57;26.90;61.90
56538;DHT22;42435;53.292;6.000;2022-08-24T07:26:24;27.00;61.70
56538;DHT22;42435;53.292;6.000;2022-08-24T07:28:52;27.10;62.40
56538;DHT22;42435;53.292;6.000;2022-08-24T07:31:18;27.20;61.70
56538;DHT22;42435;53.292;6.000;2022-08-24T07:33:45;27.30;61.30
56538;DHT22;42435;53.292;6.000;2022-08-24T07:36:11;27.50;60.90
56538;DHT22;42435;53.292;6.000;2022-08-24T07:38:39;27.60;60.60
56538;DHT22;42435;53.292;6.000;2022-08-24T07:41:04;27.70;60.30
56538;DHT22;42435;53.292;6.000;2022-08-24T07:43:30;27.90;60.30
56538;DHT22;42435;53.292;6.000;2022-08-24T07:45:56;28.00;59.90
56538;DHT22;42435;53.292;6.000;2022-08-24T07:48:21;28.20;59.60
56538;DHT22;42435;53.292;6.000;2022-08-24T07:50:47;28.40;59.10
56538;DHT22;42435;53.292;6.000;2022-08-24T07:53:13;28.60;58.60
56538;DHT22;42435;53.292;6.000;2022-08-24T07:55:39;28.70;58.40
56538;DHT22;42435;53.292;6.000;2022-08-24T07:58:05;28.90;58.00
56538;DHT22;42435;53.292;6.000;2022-08-24T08:00:31;29.10;57.80
56538;DHT22;42435;53.292;6.000;2022-08-24T08:02:56;29.20;57.10
56538;DHT22;42435;53.292;6.000;2022-08-24T08:05:23;29.30;56.90
56538;DHT22;42435;53.292;6.000;2022-08-24T08:07:50;29.40;56.70
56538;DHT22;42435;53.292;6.000;2022-08-24T08:10:16;29.40;56.60
56538;DHT22;42435;53.292;6.000;2022-08-24T08:12:42;29.50;56.50
56538;DHT22;42435;53.292;6.000;2022-08-24T08:15:08;29.70;56.30
56538;DHT22;42435;53.292;6.000;2022-08-24T08:17:36;29.90;55.80
56538;DHT22;42435;53.292;6.000;2022-08-24T08:20:04;30.00;55.60
56538;DHT22;42435;53.292;6.000;2022-08-24T08:22:30;30.20;55.40
56538;DHT22;42435;53.292;6.000;2022-08-24T08:25:14;30.40;55.10
56538;DHT22;42435;53.292;6.000;2022-08-24T08:27:40;30.50;55.00
56538;DHT22;42435;53.292;6.000;2022-08-24T08:30:06;30.60;54.90
56538;DHT22;42435;53.292;6.000;2022-08-24T08:32:31;30.80;55.50
56538;DHT22;42435;53.292;6.000;2022-08-24T08:34:58;30.90;54.20
56538;DHT22;42435;53.292;6.000;2022-08-24T08:37:24;31.10;53.70
56538;DHT22;42435;53.292;6.000;2022-08-24T08:39:50;31.10;53.30
56538;DHT22;42435;53.292;6.000;2022-08-24T08:48:16;31.40;52.40
56538;DHT22;42435;53.292;6.000;2022-08-24T08:59:43;31.70;51.80
56538;DHT22;42435;53.292;6.000;2022-08-24T09:10:37;32.00;51.20
56538;DHT22;42435;53.292;6.000;2022-08-24T09:13:09;32.20;50.90
56538;DHT22;42435;53.292;6.000;2022-08-24T09:21:43;32.40;49.40
56538;DHT22;42435;53.292;6.000;2022-08-24T09:27:18;32.40;49.30
56538;DHT22;42435;53.292;6.000;2022-08-24T09:30:09;32.40;49.20
56538;DHT22;42435;53.292;6.000;2022-08-24T09:33:04;32.40;49.30
56538;DHT22;42435;53.292;6.000;2022-08-24T09:38:46;32.50;48.90
56538;DHT22;42435;53.292;6.000;2022-08-24T09:41:35;32.70;48.70
56538;DHT22;42435;53.292;6.000;2022-08-24T09:49:54;33.10;48.00
56538;DHT22;42435;53.292;6.000;2022-08-24T09:55:45;33.40;47.30
56538;DHT22;42435;53.292;6.000;2022-08-24T09:58:47;33.50;47.10
56538;DHT22;42435;53.292;6.000;2022-08-24T10:01:24;33.50;46.90
56538;DHT22;42435;53.292;6.000;2022-08-24T10:03:54;33.70;46.50
56538;DHT22;42435;53.292;6.000;2022-08-24T10:23:39;34.20;45.20
56538;DHT22;42435;53.292;6.000;2022-08-24T10:26:22;34.10;45.20
56538;DHT22;42435;53.292;6.000;2022-08-24T10:31:41;34.20;45.50
56538;DHT22;42435;53.292;6.000;2022-08-24T10:36:59;34.20;45.00
56538;DHT22;42435;53.292;6.000;2022-08-24T10:42:39;34.00;45.10
56538;DHT22;42435;53.292;6.000;2022-08-24T10:48:19;34.10;45.20
56538;DHT22;42435;53.292;6.000;2022-08-24T10:51:02;34.30;45.10
56538;DHT22;42435;53.292;6.000;2022-08-24T10:53:33;34.50;44.70
56538;DHT22;42435;53.292;6.000;2022-08-24T10:56:08;34.70;44.50
56538;DHT22;42435;53.292;6.000;2022-08-24T10:58:48;34.80;44.10
56538;DHT22;42435;53.292;6.000;2022-08-24T11:04:00;35.10;43.70
56538;DHT22;42435;53.292;6.000;2022-08-24T11:10:06;35.90;41.40
56538;DHT22;42435;53.292;6.000;2022-08-24T11:12:42;36.20;40.90
56538;DHT22;42435;53.292;6.000;2022-08-24T11:23:45;36.70;40.30
56538;DHT22;42435;53.292;6.000;2022-08-24T11:26:20;37.00;39.30
56538;DHT22;42435;53.292;6.000;2022-08-24T11:29:16;36.90;40.00
56538;DHT22;42435;53.292;6.000;2022-08-24T11:43:10;36.70;40.60
56538;DHT22;42435;53.292;6.000;2022-08-24T12:17:01;36.40;39.80
56538;DHT22;42435;53.292;6.000;2022-08-24T12:19:57;36.50;39.50
56538;DHT22;42435;53.292;6.000;2022-08-24T12:25:49;36.40;39.40
56538;DHT22;42435;53.292;6.000;2022-08-24T12:28:44;36.40;39.10
56538;DHT22;42435;53.292;6.000;2022-08-24T12:35:04;36.60;39.20
56538;DHT22;42435;53.292;6.000;2022-08-24T12:38:39;36.70;38.90
56538;DHT22;42435;53.292;6.000;2022-08-24T12:41:35;37.00;38.40
56538;DHT22;42435;53.292;6.000;2022-08-24T12:44:25;37.10;38.40
56538;DHT22;42435;53.292;6.000;2022-08-24T12:46:55;37.10;38.20
56538;DHT22;42435;53.292;6.000;2022-08-24T12:49:27;37.20;38.40
56538;DHT22;42435;53.292;6.000;2022-08-24T13:01:13;37.70;38.30
56538;DHT22;42435;53.292;6.000;2022-08-24T13:03:41;37.90;39.30
56538;DHT22;42435;53.292;6.000;2022-08-24T13:06:24;38.10;39.60
56538;DHT22;42435;53.292;6.000;2022-08-24T13:08:51;38.20;39.70
56538;DHT22;42435;53.292;6.000;2022-08-24T13:14:19;38.40;39.80
56538;DHT22;42435;53.292;6.000;2022-08-24T13:21:54;37.30;41.70
56538;DHT22;42435;53.292;6.000;2022-08-24T13:26:57;36.90;42.60
56538;DHT22;42435;53.292;6.000;2022-08-24T13:29:48;36.90;42.70
56538;DHT22;42435;53.292;6.000;2022-08-24T13:32:26;36.80;42.70
56538;DHT22;42435;53.292;6.000;2022-08-24T13:34:55;36.50;42.90
56538;DHT22;42435;53.292;6.000;2022-08-24T13:37:24;35.90;44.00
56538;DHT22;42435;53.292;6.000;2022-08-24T13:40:03;35.40;44.80
56538;DHT22;42435;53.292;6.000;2022-08-24T13:45:49;34.90;46.00
56538;DHT22;42435;53.292;6.000;2022-08-24T13:48:25;34.90;46.10
56538;DHT22;42435;53.292;6.000;2022-08-24T14:02:23;34.50;47.00
56538;DHT22;42435;53.292;6.000;2022-08-24T14:10:23;33.40;48.70
56538;DHT22;42435;53.292;6.000;2022-08-24T14:13:29;33.30;49.00
56538;DHT22;42435;53.292;6.000;2022-08-24T14:16:09;33.40;49.00
56538;DHT22;42435;53.292;6.000;2022-08-24T14:19:06;33.50;48.60
56538;DHT22;42435;53.292;6.000;2022-08-24T14:21:41;33.40;49.40
56538;DHT22;42435;53.292;6.000;2022-08-24T14:24:40;33.70;48.80
56538;DHT22;42435;53.292;6.000;2022-08-24T14:27:13;33.90;48.50
56538;DHT22;42435;53.292;6.000;2022-08-24T14:32:48;33.90;47.80
56538;DHT22;42435;53.292;6.000;2022-08-24T14:35:56;33.80;48.50
56538;DHT22;42435;53.292;6.000;2022-08-24T14:41:45;33.60;48.40
56538;DHT22;42435;53.292;6.000;2022-08-24T14:44:21;33.40;48.70
56538;DHT22;42435;53.292;6.000;2022-08-24T14:49:48;32.90;49.40
56538;DHT22;42435;53.292;6.000;2022-08-24T14:52:31;32.80;49.80
56538;DHT22;42435;53.292;6.000;2022-08-24T14:55:30;32.80;49.60
56538;DHT22;42435;53.292;6.000;2022-08-24T14:58:00;32.80;49.70
56538;DHT22;42435;53.292;6.000;2022-08-24T15:00:48;32.70;49.50
56538;DHT22;42435;53.292;6.000;2022-08-24T15:03:31;32.70;49.60
56538;DHT22;42435;53.292;6.000;2022-08-24T15:06:19;32.70;50.00
56538;DHT22;42435;53.292;6.000;2022-08-24T15:08:46;32.50;49.70
56538;DHT22;42435;53.292;6.000;2022-08-24T15:11:15;32.20;50.10
56538;DHT22;42435;53.292;6.000;2022-08-24T15:14:00;32.20;50.70
56538;DHT22;42435;53.292;6.000;2022-08-24T15:19:10;32.60;50.30
56538;DHT22;42435;53.292;6.000;2022-08-24T15:24:49;32.50;49.80
56538;DHT22;42435;53.292;6.000;2022-08-24T15:27:26;32.10;50.50
56538;DHT22;42435;53.292;6.000;2022-08-24T15:29:53;31.70;51.00
56538;DHT22;42435;53.292;6.000;2022-08-24T15:32:20;31.60;51.20
56538;DHT22;42435;53.292;6.000;2022-08-24T15:34:47;31.40;51.30
56538;DHT22;42435;53.292;6.000;2022-08-24T15:37:36;31.40;51.30
56538;DHT22;42435;53.292;6.000;2022-08-24T15:39:59;31.30;51.30
56538;DHT22;42435;53.292;6.000;2022-08-24T15:42:28;31.00;51.60
56538;DHT22;42435;53.292;6.000;2022-08-24T15:44:57;30.90;52.60
56538;DHT22;42435;53.292;6.000;2022-08-24T15:47:28;30.90;52.60
56538;DHT22;42435;53.292;6.000;2022-08-24T15:49:58;30.70;53.20
56538;DHT22;42435;53.292;6.000;2022-08-24T15:55:29;30.30;53.50
56538;DHT22;42435;53.292;6.000;2022-08-24T15:57:58;29.90;53.60
56538;DHT22;42435;53.292;6.000;2022-08-24T16:00:35;29.70;54.60
56538;DHT22;42435;53.292;6.000;2022-08-24T16:03:49;29.60;54.90
56538;DHT22;42435;53.292;6.000;2022-08-24T16:11:41;28.90;55.90
56538;DHT22;42435;53.292;6.000;2022-08-24T16:16:56;28.50;56.80
56538;DHT22;42435;53.292;6.000;2022-08-24T16:19:28;28.40;57.10
56538;DHT22;42435;53.292;6.000;2022-08-24T16:22:08;28.30;57.40
56538;DHT22;42435;53.292;6.000;2022-08-24T16:24:39;28.20;57.70
56538;DHT22;42435;53.292;6.000;2022-08-24T16:27:16;28.10;57.90
56538;DHT22;42435;53.292;6.000;2022-08-24T16:29:44;28.00;58.40
56538;DHT22;42435;53.292;6.000;2022-08-24T16:34:51;27.90;58.90
56538;DHT22;42435;53.292;6.000;2022-08-24T16:37:18;27.70;59.40
56538;DHT22;42435;53.292;6.000;2022-08-24T16:39:45;27.60;59.50
56538;DHT22;42435;53.292;6.000;2022-08-24T16:42:24;27.40;59.90
56538;DHT22;42435;53.292;6.000;2022-08-24T16:44:50;27.40;60.20
56538;DHT22;42435;53.292;6.000;2022-08-24T16:47:16;27.30;60.50
56538;DHT22;42435;53.292;6.000;2022-08-24T16:49:42;27.20;60.90
56538;DHT22;42435;53.292;6.000;2022-08-24T16:52:08;27.20;61.10
56538;DHT22;42435;53.292;6.000;2022-08-24T16:54:34;27.20;61.40
56538;DHT22;42435;53.292;6.000;2022-08-24T16:57:06;27.20;61.30
56538;DHT22;42435;53.292;6.000;2022-08-24T16:59:32;27.30;61.40
56538;DHT22;42435;53.292;6.000;2022-08-24T17:01:59;27.40;61.20
56538;DHT22;42435;53.292;6.000;2022-08-24T17:04:25;27.40;61.10
56538;DHT22;42435;53.292;6.000;2022-08-24T17:06:52;27.40;61.20
56538;DHT22;42435;53.292;6.000;2022-08-24T17:09:18;27.40;61.10
56538;DHT22;42435;53.292;6.000;2022-08-24T17:11:44;27.30;61.20
56538;DHT22;42435;53.292;6.000;2022-08-24T17:14:12;27.30;61.30
56538;DHT22;42435;53.292;6.000;2022-08-24T17:16:38;27.20;61.50
56538;DHT22;42435;53.292;6.000;2022-08-24T17:19:07;27.20;61.50
56538;DHT22;42435;53.292;6.000;2022-08-24T17:21:35;27.10;61.80
56538;DHT22;42435;53.292;6.000;2022-08-24T17:24:01;27.00;61.90
56538;DHT22;42435;53.292;6.000;2022-08-24T17:26:27;27.00;62.10
56538;DHT22;42435;53.292;6.000;2022-08-24T17:28:54;27.00;62.10
56538;DHT22;42435;53.292;6.000;2022-08-24T17:31:20;26.90;62.30
56538;DHT22;42435;53.292;6.000;2022-08-24T17:33:49;26.90;62.40
56538;DHT22;42435;53.292;6.000;2022-08-24T17:36:17;26.80;62.70
56538;DHT22;42435;53.292;6.000;2022-08-24T17:38:47;26.70;63.00
56538;DHT22;42435;53.292;6.000;2022-08-24T17:41:13;26.60;63.10
56538;DHT22;42435;53.292;6.000;2022-08-24T17:43:39;26.70;63.10
56538;DHT22;42435;53.292;6.000;2022-08-24T17:46:08;26.70;63.00
56538;DHT22;42435;53.292;6.000;2022-08-24T17:48:34;26.80;62.90
56538;DHT22;42435;53.292;6.000;2022-08-24T17:51:00;27.00;62.60
56538;DHT22;42435;53.292;6.000;2022-08-24T17:53:25;27.00;62.50
56538;DHT22;42435;53.292;6.000;2022-08-24T17:55:51;27.00;62.40
56538;DHT22;42435;53.292;6.000;2022-08-24T17:58:17;27.00;62.30
56538;DHT22;42435;53.292;6.000;2022-08-24T18:00:43;26.90;62.50
56538;DHT22;42435;53.292;6.000;2022-08-24T18:03:09;26.80;62.60
56538;DHT22;42435;53.292;6.000;2022-08-24T18:05:35;26.80;62.70
56538;DHT22;42435;53.292;6.000;2022-08-24T18:08:01;26.60;62.80
56538;DHT22;42435;53.292;6.000;2022-08-24T18:10:29;26.50;63.00
56538;DHT22;42435;53.292;6.000;2022-08-24T18:12:57;26.40;63.20
56538;DHT22;42435;53.292;6.000;2022-08-24T18:15:23;26.30;63.30
56538;DHT22;42435;53.292;6.000;2022-08-24T18:17:50;26.20;63.70
56538;DHT22;42435;53.292;6.000;2022-08-24T18:20:25;26.00;64.00
56538;DHT22;42435;53.292;6.000;2022-08-24T18:22:51;25.90;64.30
56538;DHT22;42435;53.292;6.000;2022-08-24T18:25:18;25.80;64.40
56538;DHT22;42435;53.292;6.000;2022-08-24T18:27:44;25.80;64.60
56538;DHT22;42435;53.292;6.000;2022-08-24T18:30:17;25.60;63.90
56538;DHT22;42435;53.292;6.000;2022-08-24T18:32:44;25.50;64.80
56538;DHT22;42435;53.292;6.000;2022-08-24T18:35:10;25.50;64.90
56538;DHT22;42435;53.292;6.000;2022-08-24T18:37:35;25.50;65.20
56538;DHT22;42435;53.292;6.000;2022-08-24T18:40:02;25.40;65.50
56538;DHT22;42435;53.292;6.000;2022-08-24T18:42:28;25.30;65.80
56538;DHT22;42435;53.292;6.000;2022-08-24T18:44:54;25.20;66.00
56538;DHT22;42435;53.292;6.000;2022-08-24T18:47:20;25.10;66.30
56538;DHT22;42435;53.292;6.000;2022-08-24T18:49:46;25.00;66.50
56538;DHT22;42435;53.292;6.000;2022-08-24T18:52:14;24.90;66.70
56538;DHT22;42435;53.292;6.000;2022-08-24T18:54:44;24.90;67.10
56538;DHT22;42435;53.292;6.000;2022-08-24T18:57:12;24.80;67.30
56538;DHT22;42435;53.292;6.000;2022-08-24T18:59:38;24.70;67.50
56538;DHT22;42435;53.292;6.000;2022-08-24T19:02:12;24.60;67.70
56538;DHT22;42435;53.292;6.000;2022-08-24T19:05:08;24.60;67.90
56538;DHT22;42435;53.292;6.000;2022-08-24T19:07:37;24.50;67.80
56538;DHT22;42435;53.292;6.000;2022-08-24T19:10:04;24.50;68.00
56538;DHT22;42435;53.292;6.000;2022-08-24T19:12:31;24.50;68.20
56538;DHT22;42435;53.292;6.000;2022-08-24T19:14:59;24.40;68.40
56538;DHT22;42435;53.292;6.000;2022-08-24T19:17:25;24.30;68.60